• Join FlightAware (Why Join?)
  • Login
  • US Flag 
01:30AM EDT


 

Airport Tracker/Info


-or-


 

Live Flight TrackerFlight Track Log ✈ CSN3252 ✈ 11-Nov-2013 ✈ ZSSS / SHA - ZGKL / KWL

Flight Track Log - Related Links

Times and Time Zones

All times are in EST time to prevent confusion due to time zone crossing. See the CSN3252 flight status page for this flight to view local times or setup timezone preferences in your user account.

Time Position Orientation Groundspeed Altitude Reporting Facility
EST Latitude Longitude Course Direction KTS MPH feet Rate Location/Type
11:26PM 31.2310 121.3100 285° West 204 235 1,500  Level FlightAware
11:27PM 31.2170 121.2780 243° Southwest 233 268 3,200 3,000 Climbing FlightAware
11:27PM 31.1900 121.2520 219° Southwest 264 304 4,500 2,880 Climbing FlightAware
11:28PM 31.1710 121.2330 221° Southwest 271 312 5,600 3,300 Climbing FlightAware
11:28PM 31.1510 121.2130 221° Southwest 279 321 6,700 1,320 Climbing FlightAware
11:28PM 31.1290 121.1890 223° Southwest 279 321 6,700 2,220 Level FlightAware
11:29PM 31.1000 121.1600 221° Southwest 284 327 8,700 4,620 Climbing FlightAware
11:29PM 31.0940 121.1540 221° Southwest 284 327 9,100 2,880 Climbing FlightAware
11:30PM 31.0630 121.1060 233° Southwest 289 333 10,900 900 Climbing FlightAware
11:31PM 31.0340 121.0130 250° West 289 333 10,900  Level FlightAware
11:31PM 31.0190 120.9670 249° West 289 333 10,900  Level FlightAware
11:35PM 30.8788 120.6654 242° Southwest  Level Estimated
11:36PM 30.8330 120.5672 241° Southwest  Level Estimated
11:37PM 30.7871 120.4691 241° Southwest  Level Estimated
11:38PM 30.7411 120.3711 241° Southwest  Level Estimated
11:39PM 30.6950 120.2732 241° Southwest  Level Estimated
11:40PM 30.6488 120.1754 241° Southwest  Level Estimated
11:41PM 30.6026 120.0777 241° Southwest  Level Estimated
11:42PM 30.5563 119.9801 241° Southwest  Level Estimated
11:43PM 30.5099 119.8826 241° Southwest  Level Estimated
11:44PM 30.4635 119.7851 241° Southwest  Level Estimated
11:45PM 30.4170 119.6878 241° Southwest  Level Estimated
11:46PM 30.3704 119.5906 241° Southwest  Level Estimated
11:47PM 30.3237 119.4934 241° Southwest  Level Estimated
11:48PM 30.2770 119.3964 241° Southwest  Level Estimated
11:49PM 30.2302 119.2994 241° Southwest  Level Estimated
11:50PM 30.1833 119.2025 241° Southwest  Level Estimated
11:51PM 30.1364 119.1058 241° Southwest  Level Estimated
11:52PM 30.0894 119.0091 241° Southwest  Level Estimated
11:53PM 30.0423 118.9125 241° Southwest  Level Estimated
11:54PM 29.9951 118.8160 241° Southwest  Level Estimated
11:55PM 29.9479 118.7196 241° Southwest  Level Estimated
11:56PM 29.9006 118.6233 240° Southwest  Level Estimated
11:57PM 29.8532 118.5270 240° Southwest  Level Estimated
11:58PM 29.8058 118.4309 240° Southwest  Level Estimated
11:59PM 29.7583 118.3348 240° Southwest  Level Estimated
12:00AM 29.7107 118.2389 240° Southwest  Level Estimated
12:01AM 29.6630 118.1430 240° Southwest  Level Estimated
12:02AM 29.6153 118.0472 240° Southwest  Level Estimated
12:03AM 29.5676 117.9516 240° Southwest  Level Estimated
12:04AM 29.5197 117.8560 240° Southwest  Level Estimated
12:05AM 29.4718 117.7605 240° Southwest  Level Estimated
12:06AM 29.4238 117.6651 240° Southwest  Level Estimated
12:07AM 29.3757 117.5697 240° Southwest  Level Estimated
12:08AM 29.3276 117.4745 240° Southwest  Level Estimated
12:09AM 29.2794 117.3794 240° Southwest  Level Estimated
12:10AM 29.2312 117.2843 240° Southwest  Level Estimated
12:11AM 29.1829 117.1894 240° Southwest  Level Estimated
12:12AM 29.1345 117.0945 240° Southwest  Level Estimated
12:13AM 29.0860 116.9997 240° Southwest  Level Estimated
12:14AM 29.0375 116.9050 240° Southwest  Level Estimated
12:15AM 28.9889 116.8104 240° Southwest  Level Estimated
12:16AM 28.9402 116.7159 240° Southwest  Level Estimated
12:17AM 28.8915 116.6215 240° Southwest  Level Estimated
12:18AM 28.8427 116.5271 239° Southwest  Level Estimated
12:19AM 28.7939 116.4329 239° Southwest  Level Estimated
12:20AM 28.7450 116.3387 239° Southwest  Level Estimated
12:21AM 28.6960 116.2447 239° Southwest  Level Estimated
12:22AM 28.6469 116.1507 239° Southwest  Level Estimated
12:23AM 28.5978 116.0568 239° Southwest  Level Estimated
12:24AM 28.5486 115.9630 239° Southwest  Level Estimated
12:25AM 28.4994 115.8692 239° Southwest  Level Estimated
12:26AM 28.4501 115.7756 239° Southwest  Level Estimated
12:27AM 28.4007 115.6821 239° Southwest  Level Estimated
12:28AM 28.3513 115.5886 239° Southwest  Level Estimated
12:29AM 28.3018 115.4952 239° Southwest  Level Estimated
12:30AM 28.2522 115.4019 239° Southwest  Level Estimated
12:31AM 28.2026 115.3087 239° Southwest  Level Estimated
12:32AM 28.1529 115.2156 239° Southwest  Level Estimated
12:33AM 28.1031 115.1226 239° Southwest  Level Estimated
12:34AM 28.0533 115.0297 239° Southwest  Level Estimated
12:35AM 28.0034 114.9368 239° Southwest  Level Estimated
12:36AM 27.9535 114.8440 239° Southwest  Level Estimated
12:37AM 27.9035 114.7514 239° Southwest  Level Estimated
12:38AM 27.8534 114.6588 239° Southwest  Level Estimated
12:39AM 27.8033 114.5663 239° Southwest  Level Estimated
12:40AM 27.7531 114.4738 238° Southwest  Level Estimated
12:41AM 27.7029 114.3815 238° Southwest  Level Estimated
12:42AM 27.6525 114.2893 238° Southwest  Level Estimated
12:43AM 27.6022 114.1971 238° Southwest  Level Estimated
12:44AM 27.5518 114.1050 238° Southwest  Level Estimated
12:45AM 27.5013 114.0130 238° Southwest  Level Estimated
12:46AM 27.4507 113.9211 238° Southwest  Level Estimated
12:47AM 27.4001 113.8292 238° Southwest  Level Estimated
12:48AM 27.3494 113.7375 238° Southwest  Level Estimated
12:49AM 27.2987 113.6458 238° Southwest  Level Estimated
12:50AM 27.2479 113.5543 238° Southwest  Level Estimated
12:51AM 27.1971 113.4628 238° Southwest  Level Estimated
12:52AM 27.1462 113.3713 238° Southwest  Level Estimated
12:53AM 27.0952 113.2800 238° Southwest  Level Estimated
12:54AM 27.0441 113.1888 238° Southwest  Level Estimated
12:55AM 26.9931 113.0976 238° Southwest  Level Estimated
12:56AM 26.9419 113.0065 238° Southwest  Level Estimated
12:57AM 26.8907 112.9155 238° Southwest  Level Estimated
12:58AM 26.8394 112.8246 238° Southwest  Level Estimated
12:59AM 26.7881 112.7338 238° Southwest  Level Estimated
01:00AM 26.7367 112.6430 238° Southwest  Level Estimated
01:01AM 26.6853 112.5524 238° Southwest  Level Estimated
01:02AM 26.6338 112.4618 238° Southwest  Level Estimated
01:03AM 26.5823 112.3712 238° Southwest  Level Estimated
01:04AM 26.5306 112.2808 237° Southwest  Level Estimated
01:05AM 26.4790 112.1905 237° Southwest  Level Estimated
01:06AM 26.4272 112.1002 237° Southwest  Level Estimated
01:07AM 26.3755 112.0100 237° Southwest  Level Estimated
01:08AM 26.3236 111.9200 237° Southwest  Level Estimated
01:09AM 26.2717 111.8299 237° Southwest  Level Estimated
01:10AM 26.2198 111.7400 237° Southwest  Level Estimated
01:11AM 26.1678 111.6501 237° Southwest  Level Estimated
01:12AM 26.1157 111.5603 237° Southwest  Level Estimated
01:13AM 26.0636 111.4706 237° Southwest  Level Estimated
01:14AM 26.0114 111.3810 237° Southwest  Level Estimated
01:15AM 25.9592 111.2915 237° Southwest  Level Estimated
01:16AM 25.9069 111.2020 237° Southwest  Level Estimated
01:17AM 25.8546 111.1126 237° Southwest  Level Estimated
01:18AM 25.8022 111.0234 237° Southwest  Level Estimated
01:19AM 25.7497 110.9341 237° Southwest  Level Estimated
01:20AM 25.6972 110.8450 237° Southwest  Level Estimated
01:21AM 25.6447 110.7559 237° Southwest  Level Estimated
01:22AM 25.5921 110.6669 237° Southwest  Level Estimated
01:23AM 25.5394 110.5780 237° Southwest  Level Estimated
01:24AM 25.4867 110.4892 237° Southwest  Level Estimated
01:25AM 25.4339 110.4005 237° Southwest  Level Estimated
01:26AM 25.3811 110.3118 237° Southwest  Level Estimated
01:27AM 25.3282 110.2232 237° Southwest  Level Estimated
01:28AM 25.2753 110.1347 237° Southwest  Level Estimated
01:29AM 25.2223 110.0462 237° Southwest  Level Estimated
01:30AM 25.2181 110.0392 236° Southwest  Level Estimated
01:31AM 25.2181 110.0392 214° Southwest  Level Estimated
01:32AM 25.2181 110.0392 214° Southwest  Level Estimated
01:33AM 25.2181 110.0392 214° Southwest  Level Estimated
01:34AM 25.2181 110.0392 214° Southwest  Level Estimated
01:35AM 25.2181 110.0392 214° Southwest  Level Estimated
01:36AM 25.2181 110.0392 214° Southwest  Level Estimated
01:37AM 25.2181 110.0392 214° Southwest  Level Estimated
01:38AM 25.2181 110.0392 214° Southwest  Level Estimated
01:39AM 25.2181 110.0392 214° Southwest  Level Estimated
01:40AM 25.2181 110.0392 214° Southwest  Level Estimated
01:41AM 25.2181 110.0392 214° Southwest  Level Estimated
01:42AM 25.2181 110.0392 214° Southwest  Level Estimated